createdAt,value
2019-04-18T00:02:12.860Z,10.20
2019-04-18T00:04:56.047Z,12.28
2019-04-18T00:07:23.046Z,12.53
2019-04-18T00:09:49.142Z,11.35
2019-04-18T00:12:15.239Z,12.10
2019-04-18T00:14:49.396Z,10.75
2019-04-18T00:17:09.339Z,12.75
2019-04-18T00:19:35.421Z,10.63
2019-04-18T00:22:01.907Z,13.25
2019-04-18T00:24:28.099Z,12.63
2019-04-18T00:26:54.270Z,11.90
2019-04-18T00:29:23.087Z,12.03
2019-04-18T00:31:48.307Z,12.68
2019-04-18T00:34:16.131Z,12.13
2019-04-18T00:36:42.403Z,13.70
2019-04-18T00:39:09.061Z,12.45
2019-04-18T00:41:36.349Z,12.03
2019-04-18T00:44:04.067Z,12.07
2019-04-18T00:46:30.414Z,12.70
2019-04-18T00:48:59.615Z,13.48
2019-04-18T00:51:24.647Z,11.25
2019-04-18T00:53:51.108Z,13.08
2019-04-18T00:56:18.887Z,12.95
2019-04-18T00:58:47.939Z,11.70
2019-04-18T01:01:14.377Z,11.97
2019-04-18T01:03:40.640Z,12.80
2019-04-18T01:06:06.939Z,13.32
2019-04-18T01:08:33.231Z,11.05
2019-04-18T01:10:59.823Z,11.78
2019-04-18T01:13:26.018Z,11.38
2019-04-18T01:15:55.519Z,11.20
2019-04-18T01:18:20.065Z,11.00
2019-04-18T01:20:46.150Z,11.88
2019-04-18T01:23:12.287Z,11.80
2019-04-18T01:25:38.544Z,13.20
2019-04-18T01:28:04.785Z,11.73
2019-04-18T01:30:32.876Z,11.68
2019-04-18T01:33:02.671Z,12.15
2019-04-18T01:35:29.046Z,11.55
2019-04-18T01:37:55.123Z,12.93
2019-04-18T01:40:21.316Z,13.50
2019-04-18T01:42:52.122Z,11.75
2019-04-18T01:45:23.371Z,11.93
2019-04-18T01:47:49.530Z,12.13
2019-04-18T01:50:17.923Z,12.73
2019-04-18T01:52:43.905Z,12.30
2019-04-18T01:55:10.604Z,12.13
2019-04-18T01:57:36.864Z,13.68
2019-04-18T02:00:10.238Z,12.60
2019-04-18T02:02:36.593Z,13.22
2019-04-18T02:05:05.778Z,13.70
2019-04-18T02:07:32.004Z,12.47
2019-04-18T02:09:58.178Z,11.65
2019-04-18T02:12:24.293Z,11.88
2019-04-18T02:14:50.432Z,12.23
2019-04-18T02:17:17.584Z,11.68
2019-04-18T02:19:44.590Z,12.03
2019-04-18T02:22:14.967Z,13.60
2019-04-18T02:24:38.760Z,15.98
2019-04-18T02:27:04.846Z,13.85
2019-04-18T02:29:30.988Z,12.25
2019-04-18T02:31:59.000Z,14.90
2019-04-18T02:34:25.148Z,15.03
2019-04-18T02:36:51.212Z,11.28
2019-04-18T02:39:17.302Z,12.85
2019-04-18T02:41:44.113Z,12.07
2019-04-18T02:44:10.928Z,11.95
2019-04-18T02:46:37.064Z,13.78
2019-04-18T02:49:03.327Z,12.40
2019-04-18T02:51:29.427Z,13.18
2019-04-18T02:53:55.496Z,12.33
2019-04-18T02:56:24.186Z,12.93
2019-04-18T02:58:53.265Z,16.15
2019-04-18T03:01:37.966Z,13.50
2019-04-18T03:04:07.157Z,13.20
2019-04-18T03:06:33.347Z,11.55
2019-04-18T03:09:00.202Z,13.48
2019-04-18T03:11:27.180Z,13.55
2019-04-18T03:13:53.668Z,11.25
2019-04-18T03:16:20.990Z,15.03
2019-04-18T03:18:47.723Z,14.60
2019-04-18T03:21:13.888Z,13.62
2019-04-18T03:23:40.551Z,12.30
2019-04-18T03:26:06.857Z,14.28
2019-04-18T03:28:33.226Z,14.13
2019-04-18T03:31:03.175Z,13.08
2019-04-18T03:33:27.391Z,12.25
2019-04-18T03:35:56.763Z,13.28
2019-04-18T03:38:21.442Z,13.28
2019-04-18T03:40:47.513Z,18.15
2019-04-18T03:43:13.619Z,13.93
2019-04-18T03:45:41.600Z,17.37
2019-04-18T03:48:09.376Z,12.98
2019-04-18T03:50:35.752Z,14.45
2019-04-18T03:53:02.408Z,14.13
2019-04-18T03:55:29.195Z,14.25
2019-04-18T03:57:55.295Z,11.10
2019-04-18T04:00:25.224Z,14.40
2019-04-18T04:02:49.424Z,14.87
2019-04-18T04:05:15.511Z,13.18
2019-04-18T04:07:41.576Z,13.50
2019-04-18T04:10:12.853Z,11.08
2019-04-18T04:12:36.363Z,10.85
2019-04-18T04:15:04.495Z,11.95
2019-04-18T04:17:32.543Z,13.98
2019-04-18T04:19:58.609Z,10.98
2019-04-18T04:22:24.753Z,10.68
2019-04-18T04:24:50.897Z,10.53
2019-04-18T04:27:21.054Z,10.75
2019-04-18T04:29:44.977Z,9.08
2019-04-18T04:32:11.159Z,13.00
2019-04-18T04:34:40.080Z,12.30
2019-04-18T04:37:06.386Z,12.00
2019-04-18T04:39:33.278Z,12.25
2019-04-18T04:41:59.349Z,10.65
2019-04-18T04:44:27.971Z,12.60
2019-04-18T04:47:30.429Z,9.63
2019-04-18T04:49:56.587Z,10.75
2019-04-18T04:52:22.809Z,9.88
2019-04-18T04:54:50.664Z,10.40
2019-04-18T04:57:30.934Z,10.53
2019-04-18T04:59:58.895Z,10.55
2019-04-18T05:02:24.976Z,13.40
2019-04-18T05:04:54.398Z,12.85
2019-04-18T05:07:20.608Z,13.85
2019-04-18T05:09:46.956Z,14.70
2019-04-18T05:12:13.050Z,16.40
2019-04-18T05:14:39.755Z,17.62
2019-04-18T05:17:06.033Z,16.85
2019-04-18T05:19:32.144Z,14.18
2019-04-18T05:21:58.241Z,19.27
2019-04-18T05:24:25.367Z,12.65
2019-04-18T05:26:52.373Z,15.63
2019-04-18T05:29:18.437Z,17.12
2019-04-18T05:31:44.630Z,14.03
2019-04-18T05:34:11.201Z,14.95
2019-04-18T05:36:54.872Z,16.55
2019-04-18T05:39:07.890Z,16.62
2019-04-18T05:41:34.030Z,15.80
2019-04-18T05:44:00.600Z,16.00
2019-04-18T05:46:28.589Z,15.00
2019-04-18T05:49:00.237Z,15.23
2019-04-18T05:51:36.448Z,12.68
2019-04-18T05:54:09.070Z,12.78
2019-04-18T05:56:35.107Z,16.55
2019-04-18T05:59:20.601Z,17.12
2019-04-18T06:01:45.122Z,16.52
2019-04-18T06:04:13.181Z,14.45
2019-04-18T06:07:11.159Z,13.55
2019-04-18T06:09:26.226Z,15.63
2019-04-18T06:11:58.122Z,14.65
2019-04-18T06:14:32.844Z,12.90
2019-04-18T06:17:02.631Z,14.25
2019-04-18T06:19:33.624Z,12.73
2019-04-18T06:22:04.384Z,12.28
2019-04-18T06:24:34.047Z,9.85
2019-04-18T06:27:06.215Z,11.78
2019-04-18T06:29:48.939Z,11.15
2019-04-18T06:32:17.459Z,12.13
2019-04-18T06:34:43.783Z,10.00
2019-04-18T06:37:09.872Z,9.13
2019-04-18T06:39:36.043Z,12.30
2019-04-18T06:42:03.416Z,9.03
2019-04-18T06:44:32.720Z,8.73
2019-04-18T06:46:57.717Z,10.17
2019-04-18T06:49:25.884Z,8.87
2019-04-18T06:51:51.992Z,9.83
2019-04-18T06:54:18.066Z,9.17
2019-04-18T06:56:46.046Z,8.77
2019-04-18T06:59:12.103Z,10.00
2019-04-18T07:01:38.200Z,11.10
2019-04-18T07:04:04.401Z,10.03
2019-04-18T07:06:33.265Z,10.27
2019-04-18T07:09:03.107Z,9.80
2019-04-18T07:11:36.000Z,8.83
2019-04-18T07:14:06.995Z,9.63
2019-04-18T07:16:31.445Z,8.23
2019-04-18T07:19:00.459Z,8.80
2019-04-18T07:21:30.381Z,8.53
2019-04-18T07:24:00.089Z,8.60
2019-04-18T07:26:24.521Z,10.23
2019-04-18T07:28:50.598Z,9.90
2019-04-18T07:31:24.111Z,7.90
2019-04-18T07:33:44.732Z,8.07
2019-04-18T07:36:11.096Z,8.03
2019-04-18T07:38:38.293Z,7.83
2019-04-18T07:41:04.568Z,9.53
2019-04-18T07:43:34.557Z,8.60
2019-04-18T07:46:02.668Z,8.30
2019-04-18T07:48:28.715Z,7.40
2019-04-18T07:50:55.006Z,8.20
2019-04-18T07:53:23.376Z,7.30
2019-04-18T07:55:49.153Z,7.10
2019-04-18T07:58:15.745Z,7.20
2019-04-18T08:00:45.247Z,10.73
2019-04-18T08:03:13.017Z,7.67
2019-04-18T08:05:39.069Z,7.23
2019-04-18T08:08:05.445Z,8.20
2019-04-18T08:10:31.612Z,8.40
2019-04-18T08:12:57.689Z,7.60
2019-04-18T08:15:23.893Z,7.37
2019-04-18T08:17:53.147Z,7.87
2019-04-18T08:20:19.436Z,7.90
2019-04-18T08:22:45.568Z,7.80
2019-04-18T08:25:14.711Z,7.27
2019-04-18T08:27:40.447Z,7.80
2019-04-18T08:30:08.929Z,8.90
2019-04-18T08:32:34.988Z,6.60
2019-04-18T08:35:01.080Z,7.50
2019-04-18T08:37:29.145Z,6.83
2019-04-18T08:40:00.083Z,6.60
2019-04-18T08:42:46.240Z,8.03
2019-04-18T08:45:31.382Z,6.43
2019-04-18T08:47:57.580Z,6.93
2019-04-18T08:50:26.361Z,6.90
2019-04-18T08:52:52.414Z,7.47
2019-04-18T08:55:24.663Z,7.33
2019-04-18T08:57:50.873Z,6.43
2019-04-18T09:00:19.543Z,6.37
2019-04-18T09:02:45.629Z,8.30
2019-04-18T09:05:21.301Z,6.03
2019-04-18T09:07:40.374Z,6.03
2019-04-18T09:10:09.656Z,7.10
2019-04-18T09:12:38.675Z,5.47
2019-04-18T09:15:05.669Z,6.50
2019-04-18T09:17:35.240Z,6.13
2019-04-18T09:20:09.984Z,6.83
2019-04-18T09:22:31.143Z,6.90
2019-04-18T09:24:56.311Z,5.10
2019-04-18T09:27:23.676Z,5.03
2019-04-18T09:29:54.357Z,5.73
2019-04-18T09:32:18.657Z,5.47
2019-04-18T09:34:44.892Z,12.20
2019-04-18T09:37:10.977Z,5.60
2019-04-18T09:39:37.054Z,5.80
2019-04-18T09:42:04.826Z,5.23
2019-04-18T09:44:31.597Z,5.57
2019-04-18T09:46:58.035Z,6.57
2019-04-18T09:49:24.962Z,4.97
2019-04-18T09:51:51.433Z,5.80
2019-04-18T09:54:18.059Z,5.40
2019-04-18T09:56:44.150Z,5.67
2019-04-18T09:59:12.083Z,5.47
2019-04-18T10:01:38.630Z,5.40
2019-04-18T10:04:06.694Z,5.30
2019-04-18T10:06:33.609Z,4.97
2019-04-18T10:08:59.687Z,4.77
2019-04-18T10:11:26.218Z,5.47
2019-04-18T10:13:52.297Z,4.90
2019-04-18T10:16:19.191Z,5.23
2019-04-18T10:18:45.998Z,4.77
2019-04-18T10:21:17.159Z,4.57
2019-04-18T10:23:41.960Z,5.10
2019-04-18T10:26:12.402Z,5.50
2019-04-18T10:28:49.620Z,4.70
2019-04-18T10:31:16.148Z,5.47
2019-04-18T10:33:42.583Z,4.93
2019-04-18T10:36:09.279Z,6.40
2019-04-18T10:38:35.512Z,5.93
2019-04-18T10:41:01.571Z,5.27
2019-04-18T10:43:27.636Z,5.13
2019-04-18T10:45:54.002Z,5.70
2019-04-18T10:48:20.737Z,5.97
2019-04-18T10:50:47.167Z,5.83
2019-04-18T10:53:13.609Z,5.97
2019-04-18T10:55:40.033Z,5.20
2019-04-18T10:58:06.473Z,6.10
2019-04-18T11:00:42.934Z,5.53
2019-04-18T11:03:01.358Z,4.90
2019-04-18T11:05:31.223Z,5.57
2019-04-18T11:07:56.337Z,6.13
2019-04-18T11:10:22.893Z,6.53
2019-04-18T11:12:49.534Z,6.07
2019-04-18T11:15:17.107Z,6.10
2019-04-18T11:17:43.550Z,6.80
2019-04-18T11:20:10.986Z,6.10
2019-04-18T11:22:37.416Z,6.73
2019-04-18T11:25:05.295Z,6.20
2019-04-18T11:27:34.127Z,6.37
2019-04-18T11:30:00.260Z,6.73
2019-04-18T11:32:26.963Z,6.47
2019-04-18T11:34:53.398Z,7.53
2019-04-18T11:37:19.835Z,6.40
2019-04-18T11:39:46.270Z,5.57
2019-04-18T11:42:12.703Z,6.57
2019-04-18T11:44:39.124Z,6.67
2019-04-18T11:47:05.657Z,6.07
2019-04-18T11:49:32.884Z,5.90
2019-04-18T11:51:59.640Z,5.40
2019-04-18T11:54:26.063Z,5.63
2019-04-18T11:56:52.494Z,5.23
2019-04-18T11:59:20.831Z,5.70
2019-04-18T12:01:48.765Z,5.53
2019-04-18T12:04:19.805Z,5.33
2019-04-18T12:06:45.892Z,5.17
2019-04-18T12:09:11.984Z,5.67
2019-04-18T12:11:38.073Z,6.63
2019-04-18T12:14:04.342Z,4.80
2019-04-18T12:16:30.532Z,5.50
2019-04-18T12:18:56.589Z,5.50
2019-04-18T12:21:22.646Z,5.03
2019-04-18T12:23:48.741Z,4.70
2019-04-18T12:26:14.793Z,5.13
2019-04-18T12:28:40.864Z,7.93
2019-04-18T12:31:06.958Z,4.60
2019-04-18T12:33:35.013Z,4.93
2019-04-18T12:36:01.167Z,6.27
2019-04-18T12:38:27.412Z,5.20
2019-04-18T12:41:05.992Z,5.03
2019-04-18T12:43:21.837Z,4.97
2019-04-18T12:45:48.075Z,5.67
2019-04-18T12:48:14.298Z,4.43
2019-04-18T12:50:40.666Z,4.80
2019-04-18T12:53:06.964Z,5.37
2019-04-18T12:55:33.223Z,5.37
2019-04-18T12:57:59.444Z,7.43
2019-04-18T13:00:25.982Z,5.57
2019-04-18T13:02:52.196Z,4.90
2019-04-18T13:05:18.505Z,5.10
2019-04-18T13:07:52.647Z,4.60
2019-04-18T13:10:37.785Z,5.03
2019-04-18T13:13:08.688Z,5.53
2019-04-18T13:15:45.742Z,5.10
2019-04-18T13:18:13.840Z,4.50
2019-04-18T13:20:40.267Z,5.47
2019-04-18T13:23:06.573Z,4.70
2019-04-18T13:25:32.889Z,4.93
2019-04-18T13:27:59.654Z,4.63
2019-04-18T13:30:26.100Z,5.30
2019-04-18T13:32:52.395Z,4.87
2019-04-18T13:35:18.820Z,4.00
2019-04-18T13:37:45.123Z,4.80
2019-04-18T13:40:11.925Z,4.30
2019-04-18T13:42:38.260Z,4.40
2019-04-18T13:45:05.870Z,4.47
2019-04-18T13:47:32.084Z,6.40
2019-04-18T13:49:58.438Z,4.13
2019-04-18T13:52:24.571Z,4.47
2019-04-18T13:54:50.802Z,4.60
2019-04-18T13:57:16.986Z,4.93
2019-04-18T13:59:43.569Z,4.73
2019-04-18T14:02:19.633Z,5.30
2019-04-18T14:04:37.804Z,4.73
2019-04-18T14:07:04.184Z,4.13
2019-04-18T14:09:30.504Z,4.40
2019-04-18T14:11:57.219Z,4.10
2019-04-18T14:14:23.599Z,4.70
2019-04-18T14:16:49.891Z,4.60
2019-04-18T14:19:16.080Z,4.87
2019-04-18T14:21:42.309Z,4.40
2019-04-18T14:24:08.868Z,2.83
2019-04-18T14:26:35.325Z,3.00
2019-04-18T14:29:01.619Z,2.63
2019-04-18T14:31:27.812Z,2.70
2019-04-18T14:33:54.289Z,3.60
2019-04-18T14:36:20.994Z,3.87
2019-04-18T14:38:47.197Z,4.00
2019-04-18T14:41:13.417Z,3.93
2019-04-18T14:43:39.651Z,3.53
2019-04-18T14:46:05.960Z,3.40
2019-04-18T14:48:32.556Z,3.10
2019-04-18T14:50:59.496Z,4.00
2019-04-18T14:53:25.804Z,3.43
2019-04-18T14:55:52.016Z,3.60
2019-04-18T14:58:18.230Z,2.60
2019-04-18T15:00:44.744Z,2.33
2019-04-18T15:03:11.499Z,2.27
2019-04-18T15:05:38.373Z,2.20
2019-04-18T15:08:05.980Z,2.30
2019-04-18T15:10:33.021Z,2.03
2019-04-18T15:12:59.771Z,2.73
2019-04-18T15:15:26.687Z,2.60
2019-04-18T15:17:53.248Z,2.60
2019-04-18T15:20:20.084Z,2.20
2019-04-18T15:22:46.717Z,2.30
2019-04-18T15:25:15.158Z,2.53
2019-04-18T15:27:42.010Z,2.53
2019-04-18T15:30:09.052Z,2.10
2019-04-18T15:32:35.772Z,2.57
2019-04-18T15:35:04.021Z,3.07
2019-04-18T15:37:30.735Z,3.97
2019-04-18T15:39:57.434Z,2.80
2019-04-18T15:42:24.155Z,2.60
2019-04-18T15:44:52.711Z,2.37
2019-04-18T15:47:21.176Z,2.47
2019-04-18T15:49:48.448Z,2.30
2019-04-18T15:52:15.298Z,2.90
2019-04-18T15:54:44.088Z,2.80
2019-04-18T15:57:10.764Z,2.40
2019-04-18T15:59:39.067Z,2.73
2019-04-18T16:02:05.959Z,3.30
2019-04-18T16:04:37.058Z,2.83
2019-04-18T16:07:01.146Z,2.73
2019-04-18T16:09:28.289Z,2.80
2019-04-18T16:11:55.163Z,3.53
2019-04-18T16:14:23.620Z,3.80
2019-04-18T16:16:50.234Z,4.97
2019-04-18T16:19:16.884Z,2.97
2019-04-18T16:21:44.397Z,2.87
2019-04-18T16:24:11.759Z,2.73
2019-04-18T16:26:38.618Z,3.23
2019-04-18T16:29:06.247Z,3.00
2019-04-18T16:31:33.088Z,3.17
2019-04-18T16:33:59.736Z,4.70
2019-04-18T16:36:26.381Z,3.20
2019-04-18T16:38:53.020Z,3.90
2019-04-18T16:41:19.645Z,3.27
2019-04-18T16:43:46.274Z,3.40
2019-04-18T16:46:13.011Z,3.40
2019-04-18T16:48:39.535Z,3.30
2019-04-18T16:51:09.629Z,3.47
2019-04-18T16:53:35.155Z,3.27
2019-04-18T16:56:01.781Z,3.20
2019-04-18T16:58:28.583Z,4.20
2019-04-18T17:00:55.219Z,2.80
2019-04-18T17:03:21.843Z,3.17
2019-04-18T17:05:48.421Z,3.27
2019-04-18T17:08:15.160Z,3.37
2019-04-18T17:10:41.925Z,3.60
2019-04-18T17:13:08.524Z,2.83
2019-04-18T17:15:35.632Z,3.50
2019-04-18T17:18:02.447Z,3.23
2019-04-18T17:20:30.996Z,3.20
2019-04-18T17:22:59.583Z,3.87
2019-04-18T17:25:25.895Z,3.20
2019-04-18T17:27:52.191Z,3.10
2019-04-18T17:30:18.746Z,3.67
2019-04-18T17:32:45.045Z,3.43
2019-04-18T17:35:25.676Z,3.50
2019-04-18T17:38:11.387Z,3.60
2019-04-18T17:40:21.376Z,4.53
2019-04-18T17:42:36.586Z,4.23
2019-04-18T17:45:09.423Z,3.60
2019-04-18T17:47:35.798Z,4.43
2019-04-18T17:50:08.490Z,3.90
2019-04-18T17:52:43.584Z,4.47
2019-04-18T17:55:20.584Z,3.60
2019-04-18T17:57:30.518Z,4.00
2019-04-18T18:00:03.290Z,4.30
2019-04-18T18:02:27.177Z,4.83
2019-04-18T18:05:04.310Z,4.13
2019-04-18T18:07:28.022Z,4.27
2019-04-18T18:09:52.459Z,4.67
2019-04-18T18:12:18.221Z,4.50
2019-04-18T18:14:50.677Z,4.90
2019-04-18T18:17:16.275Z,4.03
2019-04-18T18:19:42.256Z,4.20
2019-04-18T18:22:11.025Z,4.40
2019-04-18T18:24:37.700Z,4.70
2019-04-18T18:27:05.614Z,4.27
2019-04-18T18:29:36.144Z,4.70
2019-04-18T18:32:03.171Z,4.40
2019-04-18T18:34:42.487Z,4.53
2019-04-18T18:37:01.310Z,4.90
2019-04-18T18:39:37.220Z,4.77
2019-04-18T18:42:00.337Z,4.87
2019-04-18T18:44:25.141Z,4.90
2019-04-18T18:46:53.631Z,5.37
2019-04-18T18:49:23.369Z,4.80
2019-04-18T18:51:50.802Z,4.80
2019-04-18T18:54:17.542Z,4.50
2019-04-18T18:56:47.189Z,5.30
2019-04-18T18:59:17.449Z,4.23
2019-04-18T19:01:40.971Z,5.23
2019-04-18T19:04:13.004Z,5.17
2019-04-18T19:06:40.571Z,4.80
2019-04-18T19:09:20.680Z,4.70
2019-04-18T19:11:50.311Z,4.63
2019-04-18T19:14:13.429Z,4.50
2019-04-18T19:16:43.876Z,4.87
2019-04-18T19:18:59.410Z,5.30
2019-04-18T19:21:25.804Z,5.80
2019-04-18T19:23:52.023Z,4.80
2019-04-18T19:26:22.678Z,5.67
2019-04-18T19:28:57.098Z,5.40
2019-04-18T19:31:19.406Z,4.83
2019-04-18T19:33:42.298Z,4.60
2019-04-18T19:36:32.875Z,5.30
2019-04-18T19:38:55.569Z,5.33
2019-04-18T19:41:18.957Z,5.97
2019-04-18T19:43:38.107Z,5.13
2019-04-18T19:46:00.844Z,6.80
2019-04-18T19:48:27.813Z,5.20
2019-04-18T19:50:56.503Z,5.30
2019-04-18T19:53:23.134Z,5.50
2019-04-18T19:55:58.193Z,5.23
2019-04-18T19:58:17.942Z,6.13
2019-04-18T20:00:44.327Z,5.93
2019-04-18T20:03:10.528Z,5.47
2019-04-18T20:06:01.781Z,5.80
2019-04-18T20:08:16.642Z,5.93
2019-04-18T20:10:45.123Z,5.90
2019-04-18T20:13:09.884Z,5.90
2019-04-18T20:15:29.480Z,6.70
2019-04-18T20:17:56.695Z,6.67
2019-04-18T20:20:23.342Z,6.53
2019-04-18T20:22:52.314Z,6.10
2019-04-18T20:25:19.616Z,6.10
2019-04-18T20:27:46.702Z,6.33
2019-04-18T20:30:21.941Z,6.00
2019-04-18T20:32:44.387Z,6.53
2019-04-18T20:35:11.257Z,5.63
2019-04-18T20:37:51.261Z,5.87
2019-04-18T20:40:26.001Z,8.03
2019-04-18T20:42:50.566Z,5.87
2019-04-18T20:45:31.914Z,5.40
2019-04-18T20:47:49.140Z,7.50
2019-04-18T20:50:14.514Z,9.47
2019-04-18T20:52:49.358Z,6.27
2019-04-18T20:55:18.824Z,6.63
2019-04-18T20:57:36.740Z,6.33
2019-04-18T20:59:57.955Z,6.33
2019-04-18T21:02:25.435Z,6.50
2019-04-18T21:04:54.703Z,6.37
2019-04-18T21:07:32.781Z,6.00
2019-04-18T21:09:56.205Z,7.33
2019-04-18T21:12:15.941Z,6.70
2019-04-18T21:14:42.178Z,6.73
2019-04-18T21:17:10.078Z,5.63
2019-04-18T21:19:36.480Z,6.37
2019-04-18T21:22:02.787Z,6.60
2019-04-18T21:24:29.970Z,6.00
2019-04-18T21:26:59.492Z,5.73
2019-04-18T21:29:24.337Z,6.50
2019-04-18T21:31:50.577Z,5.80
2019-04-18T21:34:18.283Z,5.60
2019-04-18T21:36:59.424Z,6.60
2019-04-18T21:39:20.164Z,5.97
2019-04-18T21:41:41.700Z,5.63
2019-04-18T21:44:10.566Z,7.00
2019-04-18T21:46:42.884Z,6.37
2019-04-18T21:49:05.718Z,6.07
2019-04-18T21:51:38.351Z,5.20
2019-04-18T21:54:04.617Z,6.30
2019-04-18T21:56:29.549Z,6.10
2019-04-18T21:59:07.265Z,6.47
2019-04-18T22:01:35.660Z,8.50
2019-04-18T22:03:59.794Z,6.37
2019-04-18T22:06:33.121Z,5.57
2019-04-18T22:09:00.363Z,5.23
2019-04-18T22:11:24.729Z,11.83
2019-04-18T22:13:51.235Z,5.60
2019-04-18T22:16:17.522Z,5.43
2019-04-18T22:18:43.806Z,5.80
2019-04-18T22:21:13.504Z,5.63
2019-04-18T22:23:42.203Z,5.13
2019-04-18T22:26:06.467Z,5.60
2019-04-18T22:28:38.059Z,5.50
2019-04-18T22:31:00.764Z,6.03
2019-04-18T22:33:34.751Z,5.57
2019-04-18T22:35:55.320Z,5.40
2019-04-18T22:38:30.765Z,4.60
2019-04-18T22:40:54.829Z,7.07
2019-04-18T22:43:19.910Z,5.93
2019-04-18T22:45:48.796Z,5.87
2019-04-18T22:48:15.771Z,6.60
2019-04-18T22:50:43.257Z,5.97
2019-04-18T22:53:13.087Z,6.30
2019-04-18T22:55:38.873Z,5.57
2019-04-18T22:58:12.103Z,5.50
2019-04-18T23:00:35.357Z,5.60
2019-04-18T23:03:02.285Z,5.30
2019-04-18T23:05:28.635Z,5.20
2019-04-18T23:08:13.029Z,5.37
2019-04-18T23:10:28.176Z,5.10
2019-04-18T23:12:50.886Z,5.43
2019-04-18T23:15:24.062Z,4.90
2019-04-18T23:17:47.675Z,5.03
2019-04-18T23:20:17.458Z,5.50
2019-04-18T23:22:43.092Z,5.30
2019-04-18T23:25:13.004Z,5.47
2019-04-18T23:27:39.736Z,5.33
2019-04-18T23:30:06.951Z,5.00
2019-04-18T23:32:35.302Z,5.53
2019-04-18T23:35:02.864Z,5.77
2019-04-18T23:37:32.068Z,4.80
2019-04-18T23:40:12.655Z,4.83
2019-04-18T23:42:44.589Z,4.93
2019-04-18T23:45:09.693Z,5.87
2019-04-18T23:47:41.343Z,5.30
2019-04-18T23:50:08.352Z,5.13
2019-04-18T23:52:33.775Z,5.27
2019-04-18T23:55:06.665Z,5.07
2019-04-18T23:57:29.430Z,5.90
2019-04-18T23:59:56.799Z,5.27
